Time;durP1;ratioP1;P1;durP2;ratioP2;P2;SDS_P1;SDS_P2;PMS_P1;PMS_P2;Temp;Humidity;BMP_temperature;BMP_pressure;BME280_temperature;BME280_humidity;BME280_pressure;Samples;Min_cycle;Max_cycle;Signal;HPM_P1;HPM_P2
2023/10/26 00:00:40;;;;;;;1999.90;999.90;;;;;;;9.22;100.00;96255.38;18633327;31;20432;-58
2023/10/26 00:10:43;;;;;;;1999.90;999.90;;;;;;;9.05;100.00;96242.47;18606349;31;20374;-59
2023/10/26 00:20:45;;;;;;;1999.90;999.90;;;;;;;8.96;100.00;96241.53;18632410;31;20067;-58
2023/10/26 00:30:47;;;;;;;1999.90;999.90;;;;;;;8.91;100.00;96241.63;18631485;31;20052;-58
2023/10/26 00:40:50;;;;;;;1999.90;999.90;;;;;;;8.80;100.00;96222.91;18609781;31;20091;-58
2023/10/26 00:50:52;;;;;;;1999.90;999.90;;;;;;;8.79;100.00;96245.56;18630369;31;20071;-59
2023/10/26 01:00:55;;;;;;;1999.90;999.90;;;;;;;9.10;100.00;96231.59;18629646;31;20053;-58
2023/10/26 01:10:58;;;;;;;1999.90;999.90;;;;;;;9.22;100.00;96220.31;18628903;31;20048;-59
2023/10/26 01:21:00;;;;;;;1999.90;999.90;;;;;;;9.35;100.00;96231.47;18628191;31;20052;-58
2023/10/26 01:31:03;;;;;;;1999.90;999.90;;;;;;;9.38;100.00;96215.47;18621039;31;20075;-59
2023/10/26 01:41:06;;;;;;;1999.90;999.90;;;;;;;9.43;100.00;96191.09;18612968;31;20099;-59
2023/10/26 01:51:08;;;;;;;1999.90;999.90;;;;;;;9.54;100.00;96188.19;18626800;31;20070;-59
2023/10/26 02:01:11;;;;;;;1999.90;999.90;;;;;;;9.64;100.00;96166.41;18626578;31;20056;-59
2023/10/26 02:11:14;;;;;;;1999.90;999.90;;;;;;;9.61;100.00;96148.94;18625823;31;20044;-59
2023/10/26 02:21:16;;;;;;;1999.90;999.90;;;;;;;9.75;100.00;96135.41;18625686;31;20108;-58
2023/10/26 02:31:18;;;;;;;1999.90;999.90;;;;;;;9.82;100.00;96125.00;18625541;31;20472;-58
2023/10/26 02:41:21;;;;;;;1999.90;999.90;;;;;;;9.88;100.00;96135.69;18624425;31;20061;-59
2023/10/26 02:51:24;;;;;;;1999.90;999.90;;;;;;;9.91;100.00;96125.09;18610520;31;20390;-59
2023/10/26 03:01:33;;;;;;;1999.90;999.90;;;;;;;9.82;100.00;96133.09;18634027;31;20100;-58
2023/10/26 03:11:36;;;;;;;1999.90;999.90;;;;;;;9.90;100.00;96122.69;18636532;31;20079;-59
2023/10/26 03:21:39;;;;;;;1999.90;999.90;;;;;;;10.07;100.00;96109.38;18629401;31;20079;-59
2023/10/26 03:31:41;;;;;;;1999.90;999.90;;;;;;;10.14;100.00;96106.22;18635693;31;20120;-59
2023/10/26 03:41:44;;;;;;;1999.90;999.90;;;;;;;10.18;100.00;96101.78;18619946;31;20053;-58
2023/10/26 03:51:47;;;;;;;1999.90;999.90;;;;;;;10.23;100.00;96098.19;18620371;31;20060;-59
2023/10/26 04:01:50;;;;;;;1999.90;999.90;;;;;;;10.25;100.00;96104.06;18633608;31;20100;-58
2023/10/26 04:11:53;;;;;;;1999.90;999.90;;;;;;;10.28;100.00;96098.09;18631766;31;20041;-59
2023/10/26 04:21:56;;;;;;;1999.90;999.90;;;;;;;10.31;100.00;96100.94;18617774;31;20098;-59
2023/10/26 04:31:59;;;;;;;1999.90;999.90;;;;;;;10.33;100.00;96077.16;18631732;31;20067;-59
2023/10/26 04:42:03;;;;;;;1999.90;999.90;;;;;;;10.33;100.00;96060.13;18630413;31;20075;-58
2023/10/26 04:52:05;;;;;;;1999.90;999.90;;;;;;;10.31;100.00;96051.53;18630280;31;20049;-59
2023/10/26 05:02:10;;;;;;;1999.90;999.90;;;;;;;10.33;100.00;96041.22;18629696;31;20104;-59
2023/10/26 05:12:13;;;;;;;;;;;;;;;10.31;100.00;96032.63;18622403;31;20069;-59
2023/10/26 05:22:17;;;;;;;1999.90;999.90;;;;;;;10.41;100.00;96005.38;18628542;31;19940;-59
2023/10/26 05:32:21;;;;;;;1999.90;999.90;;;;;;;10.42;100.00;95998.87;18628052;31;20104;-58
2023/10/26 05:42:23;;;;;;;1999.90;999.90;;;;;;;10.40;100.00;95995.69;18612765;31;20142;-58
2023/10/26 05:52:26;;;;;;;1999.90;999.90;;;;;;;10.48;100.00;95981.44;18612800;31;20074;-59
2023/10/26 06:02:29;;;;;;;1999.90;999.90;;;;;;;10.45;100.00;95971.22;18626303;31;20380;-59
2023/10/26 06:12:32;;;;;;;1999.90;999.90;;;;;;;10.52;100.00;95965.38;18610729;31;20056;-59
2023/10/26 06:22:35;;;;;;;1999.90;999.90;;;;;;;10.49;100.00;95977.59;18625492;31;20052;-58
2023/10/26 06:32:37;;;;;;;1999.90;999.90;;;;;;;10.53;100.00;95990.50;18630202;31;20491;-59
2023/10/26 06:42:40;;;;;;;1999.90;999.90;;;;;;;10.59;100.00;95998.19;18624079;31;20141;-59
2023/10/26 06:52:43;;;;;;;1999.90;999.90;;;;;;;10.65;100.00;95983.41;18623346;31;20108;-59
2023/10/26 07:02:46;;;;;;;1999.90;999.90;;;;;;;10.74;100.00;95994.25;18622507;31;20154;-58
2023/10/26 07:12:49;;;;;;;1999.90;999.90;;;;;;;10.85;100.00;95995.56;18636593;31;20071;-58
2023/10/26 07:22:55;;;;;;;1999.90;999.90;;;;;;;10.89;100.00;96009.25;18635971;31;20093;-59
2023/10/26 07:32:58;;;;;;;1999.90;999.90;;;;;;;10.99;100.00;96022.50;18621132;31;20107;-59
2023/10/26 07:43:03;;;;;;;1999.90;999.90;;;;;;;11.18;100.00;96032.25;18634114;31;20067;-59
2023/10/26 07:53:06;;;;;;;1999.90;999.90;;;;;;;11.47;100.00;96042.50;18627312;31;20475;-59
2023/10/26 08:03:09;;;;;;;1999.90;999.90;;;;;;;11.67;100.00;96015.94;18633549;31;20052;-59
2023/10/26 08:13:12;;;;;;;1999.90;999.90;;;;;;;12.11;100.00;96045.75;18632792;31;20064;-59
2023/10/26 08:23:15;;;;;;;1999.90;999.90;;;;;;;12.20;100.00;96066.31;18631973;31;20052;-59
2023/10/26 08:33:18;;;;;;;1999.90;999.90;;;;;;;12.43;100.00;96076.97;18631725;31;20052;-59
2023/10/26 08:43:23;;;;;;;1999.90;999.90;;;;;;;12.20;100.00;96090.69;18615550;31;20396;-58
2023/10/26 08:53:28;;;;;;;1999.90;999.90;;;;;;;12.41;100.00;96098.19;18629650;31;20075;-58
2023/10/26 09:03:33;;;;;;;1999.90;999.90;;;;;;;12.57;100.00;96120.19;18615245;31;20060;-58
2023/10/26 09:13:36;;;;;;;1999.90;999.90;;;;;;;12.69;100.00;96128.44;18615304;31;20456;-58
2023/10/26 09:23:43;;;;;;;1999.90;999.90;;;;;;;12.85;100.00;96127.94;18628318;31;20345;-59
2023/10/26 09:33:47;;;;;;;1999.90;999.90;;;;;;;13.10;100.00;96134.44;18628017;31;20055;-59
2023/10/26 09:43:50;;;;;;;1999.90;999.90;;;;;;;13.10;100.00;96130.91;18612740;31;20092;-59
2023/10/26 09:53:54;;;;;;;1999.90;999.90;;;;;;;13.38;100.00;96148.38;18626594;31;20048;-59
2023/10/26 10:03:59;;;;;;;1999.90;999.90;;;;;;;13.79;100.00;96135.25;18612070;31;20071;-59
2023/10/26 10:14:03;;;;;;;1999.90;999.90;;;;;;;14.03;100.00;96133.84;18611453;31;20063;-58
2023/10/26 10:24:06;;;;;;;1999.90;999.90;;;;;;;14.00;100.00;96134.50;18598687;31;20057;-59
2023/10/26 10:34:12;;;;;;;1999.90;999.90;;;;;;;14.65;100.00;96118.66;18623389;31;20102;-58
2023/10/26 10:44:16;;;;;;;1999.90;999.90;;;;;;;14.56;100.00;96120.63;18620401;31;20478;-59
2023/10/26 10:54:26;;;;;;;1999.90;999.90;;;;;;;14.67;100.00;96096.56;18624692;31;20364;-59
2023/10/26 11:04:55;;;;;;;1999.90;999.90;;;;;;;15.02;100.00;96066.25;18599270;31;20067;-59
2023/10/26 11:15:14;;;;;;;1999.90;999.90;;;;;;;15.30;100.00;96041.09;18610077;31;20060;-59
2023/10/26 11:25:27;;;;;;;1999.90;999.90;;;;;;;15.64;100.00;96039.81;18635898;31;20107;-59
2023/10/26 11:35:42;;;;;;;1999.90;999.90;;;;;;;15.66;100.00;96034.03;18635094;31;20048;-59
2023/10/26 11:45:48;;;;;;;1999.90;999.90;;;;;;;15.87;100.00;96023.81;18634617;31;20059;-59
2023/10/26 11:55:52;;;;;;;1999.90;999.90;;;;;;;16.12;100.00;96001.91;18633962;31;20064;-59
2023/10/26 12:05:55;;;;;;;1999.90;999.90;;;;;;;16.20;100.00;95973.69;18633395;31;20103;-59
2023/10/26 12:15:59;;;;;;;1999.90;999.90;;;;;;;16.02;100.00;95961.50;18632876;31;20052;-59
2023/10/26 12:26:02;;;;;;;1999.90;999.90;;;;;;;16.00;100.00;95952.88;18617752;31;20048;-59
2023/10/26 12:36:05;;;;;;;1999.90;999.90;;;;;;;16.28;100.00;95952.88;18630658;31;20333;-59
2023/10/26 12:46:12;;;;;;;1999.90;999.90;;;;;;;16.32;100.00;95950.22;18616972;31;20137;-58
2023/10/26 12:56:15;;;;;;;1999.90;999.90;;;;;;;16.21;100.00;95956.22;18616209;31;20044;-59
2023/10/26 13:06:19;;;;;;;1999.90;999.90;;;;;;;16.08;100.00;95951.94;18616105;31;20068;-58
2023/10/26 13:16:23;;;;;;;1999.90;999.90;;;;;;;15.86;100.00;95970.44;18622180;31;20492;-59
2023/10/26 13:26:30;;;;;;;1999.90;999.90;;;;;;;14.79;100.00;95995.94;18614148;31;20067;-59
2023/10/26 13:36:34;;;;;;;1999.90;999.90;;;;;;;13.41;100.00;96016.63;18613632;31;20074;-59
2023/10/26 13:46:37;;;;;;;;;;;;;;;12.70;100.00;96020.78;18627048;31;20064;-58
2023/10/26 13:56:41;;;;;;;1999.90;999.90;;;;;;;12.65;100.00;96039.94;18627087;31;19970;-58
2023/10/26 14:06:44;;;;;;;1999.90;999.90;;;;;;;12.41;100.00;96025.00;18611649;31;20060;-58
2023/10/26 14:16:47;;;;;;;1999.90;999.90;;;;;;;12.47;100.00;96031.84;18625501;31;20093;-58
2023/10/26 14:26:51;;;;;;;1999.90;999.90;;;;;;;12.10;100.00;96025.19;18625324;31;20376;-59
2023/10/26 14:36:53;;;;;;;1999.90;999.90;;;;;;;12.03;100.00;96014.84;18597636;31;20441;-59
2023/10/26 14:46:57;;;;;;;1999.90;999.90;;;;;;;12.05;100.00;96004.50;18611025;31;20458;-59
2023/10/26 14:57:05;;;;;;;1999.90;999.90;;;;;;;11.87;100.00;96007.19;18634176;31;20440;-58
2023/10/26 15:07:09;;;;;;;1999.90;999.90;;;;;;;11.81;100.00;96011.19;18630471;31;20060;-59
2023/10/26 15:17:13;;;;;;;1999.90;999.90;;;;;;;11.63;100.00;96015.75;18622339;31;20459;-58
2023/10/26 15:27:17;;;;;;;1999.90;999.90;;;;;;;11.45;100.00;96016.88;18635981;31;20061;-59
2023/10/26 15:37:22;;;;;;;1999.90;999.90;;;;;;;11.22;100.00;95992.63;18634814;31;20056;-59
2023/10/26 15:47:26;;;;;;;1999.90;999.90;;;;;;;11.16;100.00;96002.00;18634702;31;20059;-58
2023/10/26 15:57:36;;;;;;;1999.90;999.90;;;;;;;11.01;100.00;96004.03;18634079;31;20053;-58
2023/10/26 16:07:41;;;;;;;1999.90;999.90;;;;;;;11.04;100.00;95996.41;18618731;31;20051;-58
2023/10/26 16:17:44;;;;;;;1999.90;999.90;;;;;;;10.98;100.00;95987.66;18632697;31;20044;-59
2023/10/26 16:27:48;;;;;;;1999.90;999.90;;;;;;;10.92;100.00;95994.31;18632201;31;20056;-58
2023/10/26 16:37:51;;;;;;;1999.90;999.90;;;;;;;10.91;100.00;95985.41;18631535;31;20055;-59
2023/10/26 16:47:53;;;;;;;1999.90;999.90;;;;;;;10.91;100.00;95981.88;18603329;31;20084;-59
2023/10/26 16:57:57;;;;;;;1999.90;999.90;;;;;;;10.89;100.00;95967.91;18623597;31;20079;-59
2023/10/26 17:08:03;;;;;;;1999.90;999.90;;;;;;;10.81;100.00;95986.50;18629647;31;20052;-59
2023/10/26 17:18:05;;;;;;;1999.90;999.90;;;;;;;10.68;100.00;95987.38;18628441;31;20090;-59
2023/10/26 17:28:08;;;;;;;1999.90;999.90;;;;;;;10.62;100.00;95975.94;18628548;31;20100;-59
2023/10/26 17:38:11;;;;;;;1999.90;999.90;;;;;;;10.63;100.00;95969.41;18627702;31;20059;-59
2023/10/26 17:48:15;;;;;;;1999.90;999.90;;;;;;;10.63;100.00;95957.78;18624700;31;20134;-59
2023/10/26 17:58:17;;;;;;;1999.90;999.90;;;;;;;10.59;100.00;95949.53;18624267;31;20334;-59
2023/10/26 18:08:20;;;;;;;1999.90;999.90;;;;;;;10.53;100.00;95948.06;18609643;31;20104;-59
2023/10/26 18:18:23;;;;;;;1999.90;999.90;;;;;;;10.46;100.00;95931.50;18608703;31;20080;-59
2023/10/26 18:28:27;;;;;;;1999.90;999.90;;;;;;;10.40;100.00;95920.06;18607296;31;20100;-59
2023/10/26 18:38:31;;;;;;;1999.90;999.90;;;;;;;10.40;100.00;95911.94;18622540;31;20063;-58
2023/10/26 18:48:36;;;;;;;1999.90;999.90;;;;;;;10.40;100.00;95903.03;18624035;31;20124;-59
2023/10/26 18:58:39;;;;;;;1999.90;999.90;;;;;;;10.32;100.00;95899.94;18624545;31;20140;-59
2023/10/26 19:08:42;;;;;;;1999.90;999.90;;;;;;;10.28;100.00;95884.69;18624085;31;20094;-59
2023/10/26 19:18:45;;;;;;;1999.90;999.90;;;;;;;10.30;100.00;95867.03;18609475;31;20062;-58
2023/10/26 19:28:48;;;;;;;1999.90;999.90;;;;;;;10.27;100.00;95858.78;18609035;31;20479;-58
2023/10/26 19:38:51;;;;;;;1999.90;999.90;;;;;;;10.29;100.00;95838.47;18619840;31;20093;-59
2023/10/26 19:48:55;;;;;;;1999.90;999.90;;;;;;;10.35;100.00;95833.72;18634134;31;20052;-59
2023/10/26 19:58:58;;;;;;;1999.90;999.90;;;;;;;10.36;100.00;95821.00;18633822;31;20048;-59
2023/10/26 20:09:01;;;;;;;1999.90;999.90;;;;;;;10.33;100.00;95806.19;18633324;31;20078;-59
2023/10/26 20:19:04;;;;;;;1999.90;999.90;;;;;;;10.20;100.00;95790.94;18632499;31;20082;-59
2023/10/26 20:29:07;;;;;;;1999.90;999.90;;;;;;;10.25;100.00;95802.37;18617587;31;20036;-59
2023/10/26 20:39:11;;;;;;;1999.90;999.90;;;;;;;10.20;100.00;95797.12;18617076;31;20067;-59
2023/10/26 20:49:14;;;;;;;1999.90;999.90;;;;;;;10.23;100.00;95785.69;18563283;32;20083;-59
2023/10/26 20:59:17;;;;;;;1999.90;999.90;;;;;;;10.22;100.00;95773.28;18563792;32;20053;-59
2023/10/26 21:09:20;;;;;;;1999.90;999.90;;;;;;;10.14;100.00;95766.75;18564331;32;20049;-59
2023/10/26 21:19:23;;;;;;;1999.90;999.90;;;;;;;10.22;100.00;95761.69;18563521;31;20061;-59
2023/10/26 21:29:25;;;;;;;1999.90;999.90;;;;;;;10.18;100.00;95742.59;18563236;31;20053;-59
2023/10/26 21:39:30;;;;;;;1999.90;999.90;;;;;;;10.12;100.00;95735.78;18562207;31;20395;-59
2023/10/26 21:49:32;;;;;;;1999.90;999.90;;;;;;;10.04;100.00;95745.44;18623592;31;20074;-59
2023/10/26 21:59:35;;;;;;;1999.90;999.90;;;;;;;10.10;100.00;95733.41;18612706;31;20067;-59
2023/10/26 22:09:38;;;;;;;1999.90;999.90;;;;;;;10.03;100.00;95738.47;18626272;31;20057;-59
2023/10/26 22:19:56;;;;;;;1999.90;999.90;;;;;;;10.04;100.00;95733.84;18625381;31;20089;-59
2023/10/26 22:29:59;;;;;;;1999.90;999.90;;;;;;;9.99;100.00;95732.87;18619523;31;20064;-59
2023/10/26 22:40:01;;;;;;;1999.90;999.90;;;;;;;9.88;100.00;95752.38;18610941;31;20452;-59
2023/10/26 22:50:04;;;;;;;1999.90;999.90;;;;;;;9.93;100.00;95766.53;18624918;31;20068;-59
2023/10/26 23:00:11;;;;;;;1999.90;999.90;;;;;;;9.82;100.00;95760.59;18624440;31;20060;-59
2023/10/26 23:10:14;;;;;;;1999.90;999.90;;;;;;;9.89;100.00;95737.78;18624280;31;20092;-58
2023/10/26 23:20:17;;;;;;;1999.90;999.90;;;;;;;9.83;100.00;95750.63;18635620;31;20053;-58
2023/10/26 23:30:19;;;;;;;1999.90;999.90;;;;;;;9.85;100.00;95751.09;18635828;31;20433;-59
2023/10/26 23:40:22;;;;;;;1999.90;999.90;;;;;;;9.74;100.00;95737.09;18608179;31;20376;-58
2023/10/26 23:50:24;;;;;;;1999.90;999.90;;;;;;;9.81;100.00;95745.53;18621155;31;20071;-59
